sensor_id;sensor_type;location;lat;lon;timestamp;pressure;altitude;pressure_sealevel;temperature;humidity
7333;BME280;3707;43.618;25.342;2023-04-07T00:01:28;99932.41;;;6.52;68.46
7333;BME280;3707;43.618;25.342;2023-04-07T00:03:57;99929.78;;;6.50;68.23
7333;BME280;3707;43.618;25.342;2023-04-07T00:06:23;99936.81;;;6.56;67.77
7333;BME280;3707;43.618;25.342;2023-04-07T00:08:51;99931.44;;;6.48;68.07
7333;BME280;3707;43.618;25.342;2023-04-07T00:11:18;99927.19;;;6.48;68.00
7333;BME280;3707;43.618;25.342;2023-04-07T00:13:45;99934.06;;;6.49;67.64
7333;BME280;3707;43.618;25.342;2023-04-07T00:16:12;99940.13;;;6.52;67.26
7333;BME280;3707;43.618;25.342;2023-04-07T00:18:39;99931.44;;;6.48;66.80
7333;BME280;3707;43.618;25.342;2023-04-07T00:21:07;99940.13;;;6.52;67.49
7333;BME280;3707;43.618;25.342;2023-04-07T00:23:33;99934.06;;;6.49;66.09
7333;BME280;3707;43.618;25.342;2023-04-07T00:26:00;99911.19;;;6.30;65.64
7333;BME280;3707;43.618;25.342;2023-04-07T00:28:27;99923.66;;;6.46;65.58
7333;BME280;3707;43.618;25.342;2023-04-07T00:30:54;99930.78;;;6.55;64.65
7333;BME280;3707;43.618;25.342;2023-04-07T00:33:20;99908.78;;;6.36;64.41
7333;BME280;3707;43.618;25.342;2023-04-07T00:35:47;99930.75;;;6.54;64.93
7333;BME280;3707;43.618;25.342;2023-04-07T00:38:15;99940.28;;;6.56;66.29
7333;BME280;3707;43.618;25.342;2023-04-07T00:40:42;99855.50;;;6.04;65.04
7333;BME280;3707;43.618;25.342;2023-04-07T00:43:09;99937.66;;;6.55;65.10
7333;BME280;3707;43.618;25.342;2023-04-07T00:45:36;99930.81;;;6.57;65.07
7333;BME280;3707;43.618;25.342;2023-04-07T00:48:03;99933.97;;;6.46;65.26
7333;BME280;3707;43.618;25.342;2023-04-07T00:50:30;99937.56;;;6.52;64.55
7333;BME280;3707;43.618;25.342;2023-04-07T00:52:57;99933.06;;;6.44;64.31
7333;BME280;3707;43.618;25.342;2023-04-07T00:55:26;99933.31;;;6.54;64.05
7333;BME280;3707;43.618;25.342;2023-04-07T00:57:53;99926.31;;;6.48;63.83
7333;BME280;3707;43.618;25.342;2023-04-07T01:00:20;99944.47;;;6.53;63.41
7333;BME280;3707;43.618;25.342;2023-04-07T01:02:52;99938.00;;;6.67;62.84
7333;BME280;3707;43.618;25.342;2023-04-07T01:05:25;99922.13;;;6.53;62.85
7333;BME280;3707;43.618;25.342;2023-04-07T01:08:02;99933.81;;;6.70;62.65
7333;BME280;3707;43.618;25.342;2023-04-07T01:10:36;99925.00;;;6.64;61.95
7333;BME280;3707;43.618;25.342;2023-04-07T01:13:11;99937.06;;;6.65;62.50
7333;BME280;3707;43.618;25.342;2023-04-07T01:15:45;99931.19;;;6.69;62.65
7333;BME280;3707;43.618;25.342;2023-04-07T01:18:16;99931.00;;;6.63;62.30
7333;BME280;3707;43.618;25.342;2023-04-07T01:20:47;99931.84;;;6.62;62.42
7333;BME280;3707;43.618;25.342;2023-04-07T01:23:22;99932.75;;;6.64;62.00
7333;BME280;3707;43.618;25.342;2023-04-07T01:26:03;99923.97;;;6.57;62.35
7333;BME280;3707;43.618;25.342;2023-04-07T01:31:43;99931.09;;;6.66;62.46
7333;BME280;3707;43.618;25.342;2023-04-07T01:34:12;99938.00;;;6.67;60.93
7333;BME280;3707;43.618;25.342;2023-04-07T01:36:40;99934.66;;;6.71;61.04
7333;BME280;3707;43.618;25.342;2023-04-07T01:39:08;99857.94;;;6.29;60.53
7333;BME280;3707;43.618;25.342;2023-04-07T01:41:36;99936.25;;;6.66;61.03
7333;BME280;3707;43.618;25.342;2023-04-07T01:44:05;99929.22;;;6.60;60.98
7333;BME280;3707;43.618;25.342;2023-04-07T01:46:33;99909.91;;;6.46;61.55
7333;BME280;3707;43.618;25.342;2023-04-07T01:49:02;99926.47;;;6.54;62.36
7333;BME280;3707;43.618;25.342;2023-04-07T01:51:31;99930.75;;;6.54;62.06
7333;BME280;3707;43.618;25.342;2023-04-07T01:54:00;99931.66;;;6.56;61.35
7333;BME280;3707;43.618;25.342;2023-04-07T01:56:28;99927.19;;;6.48;60.53
7333;BME280;3707;43.618;25.342;2023-04-07T01:58:54;99893.91;;;6.26;61.10
7333;BME280;3707;43.618;25.342;2023-04-07T02:01:21;99923.50;;;6.40;61.04
7333;BME280;3707;43.618;25.342;2023-04-07T02:03:52;99925.88;;;6.63;60.13
7333;BME280;3707;43.618;25.342;2023-04-07T02:06:25;99924.09;;;6.62;60.77
7333;BME280;3707;43.618;25.342;2023-04-07T02:08:57;99925.66;;;6.57;60.10
7333;BME280;3707;43.618;25.342;2023-04-07T02:11:25;99925.50;;;6.51;60.08
7333;BME280;3707;43.618;25.342;2023-04-07T02:13:53;99922.25;;;6.56;58.96
7333;BME280;3707;43.618;25.342;2023-04-07T02:16:21;99915.50;;;6.61;58.44
7333;BME280;3707;43.618;25.342;2023-04-07T02:18:48;99916.59;;;6.69;58.01
7333;BME280;3707;43.618;25.342;2023-04-07T02:21:15;99924.28;;;6.68;58.06
7333;BME280;3707;43.618;25.342;2023-04-07T02:23:45;99925.38;;;6.76;58.18
7333;BME280;3707;43.618;25.342;2023-04-07T02:26:12;99913.66;;;6.56;58.14
7333;BME280;3707;43.618;25.342;2023-04-07T02:28:39;99922.44;;;6.64;58.32
7333;BME280;3707;43.618;25.342;2023-04-07T02:31:06;99921.59;;;6.63;58.30
7333;BME280;3707;43.618;25.342;2023-04-07T02:33:32;99927.84;;;6.73;58.60
7333;BME280;3707;43.618;25.342;2023-04-07T02:35:59;99925.78;;;6.60;58.32
7333;BME280;3707;43.618;25.342;2023-04-07T02:38:26;99918.72;;;6.53;58.42
7333;BME280;3707;43.618;25.342;2023-04-07T02:40:54;99931.19;;;6.69;58.38
7333;BME280;3707;43.618;25.342;2023-04-07T02:43:22;99931.00;;;6.63;58.14
7333;BME280;3707;43.618;25.342;2023-04-07T02:45:49;99933.66;;;6.66;58.51
7333;BME280;3707;43.618;25.342;2023-04-07T02:48:16;99931.25;;;6.72;57.97
7333;BME280;3707;43.618;25.342;2023-04-07T02:50:43;99935.44;;;6.67;57.59
7333;BME280;3707;43.618;25.342;2023-04-07T02:53:10;99924.03;;;6.59;58.85
7333;BME280;3707;43.618;25.342;2023-04-07T02:55:36;99931.19;;;6.69;58.41
7333;BME280;3707;43.618;25.342;2023-04-07T02:58:05;99933.44;;;6.58;58.15
7333;BME280;3707;43.618;25.342;2023-04-07T03:00:32;99924.06;;;6.60;57.96
7333;BME280;3707;43.618;25.342;2023-04-07T03:02:59;99914.38;;;6.52;58.56
7333;BME280;3707;43.618;25.342;2023-04-07T03:05:26;99938.75;;;6.63;58.14
7333;BME280;3707;43.618;25.342;2023-04-07T03:07:53;99934.34;;;6.59;58.62
7333;BME280;3707;43.618;25.342;2023-04-07T03:10:19;99908.22;;;6.46;57.80
7333;BME280;3707;43.618;25.342;2023-04-07T03:12:46;99930.28;;;6.67;58.32
7333;BME280;3707;43.618;25.342;2023-04-07T03:15:14;99929.34;;;6.65;58.45
7333;BME280;3707;43.618;25.342;2023-04-07T03:17:41;99935.22;;;6.59;57.65
7333;BME280;3707;43.618;25.342;2023-04-07T03:20:08;99925.66;;;6.57;58.28
7333;BME280;3707;43.618;25.342;2023-04-07T03:22:35;99925.44;;;6.47;57.77
7333;BME280;3707;43.618;25.342;2023-04-07T03:25:02;99930.09;;;6.61;57.43
7333;BME280;3707;43.618;25.342;2023-04-07T03:27:29;99937.94;;;6.65;57.47
7333;BME280;3707;43.618;25.342;2023-04-07T03:29:56;99930.16;;;6.64;58.14
7333;BME280;3707;43.618;25.342;2023-04-07T03:32:24;99939.78;;;6.69;57.19
7333;BME280;3707;43.618;25.342;2023-04-07T03:34:51;99934.56;;;6.68;57.15
7333;BME280;3707;43.618;25.342;2023-04-07T03:37:18;99939.72;;;6.68;57.18
7333;BME280;3707;43.618;25.342;2023-04-07T03:39:45;99951.84;;;6.70;56.83
7333;BME280;3707;43.618;25.342;2023-04-07T03:42:11;99922.09;;;6.52;57.30
7333;BME280;3707;43.618;25.342;2023-04-07T03:44:38;99962.91;;;6.68;56.85
7333;BME280;3707;43.618;25.342;2023-04-07T03:47:05;99958.50;;;6.64;56.83
7333;BME280;3707;43.618;25.342;2023-04-07T03:49:33;99949.94;;;6.63;57.14
7333;BME280;3707;43.618;25.342;2023-04-07T03:52:02;99962.97;;;6.69;57.06
7333;BME280;3707;43.618;25.342;2023-04-07T03:54:29;99967.09;;;6.64;57.09
7333;BME280;3707;43.618;25.342;2023-04-07T03:56:56;99962.00;;;6.66;56.92
7333;BME280;3707;43.618;25.342;2023-04-07T03:59:23;99972.53;;;6.73;56.74
7333;BME280;3707;43.618;25.342;2023-04-07T04:01:50;99969.00;;;6.70;57.27
7333;BME280;3707;43.618;25.342;2023-04-07T04:04:17;99969.91;;;6.72;57.03
7333;BME280;3707;43.618;25.342;2023-04-07T04:06:45;99969.97;;;6.73;57.32
7333;BME280;3707;43.618;25.342;2023-04-07T04:09:12;99979.22;;;6.67;58.46
7333;BME280;3707;43.618;25.342;2023-04-07T04:11:39;99982.00;;;6.74;57.28
7333;BME280;3707;43.618;25.342;2023-04-07T04:14:05;99985.41;;;6.73;57.47
7333;BME280;3707;43.618;25.342;2023-04-07T04:16:32;99922.69;;;6.41;57.20
7333;BME280;3707;43.618;25.342;2023-04-07T04:18:59;99975.69;;;6.63;57.63
7333;BME280;3707;43.618;25.342;2023-04-07T04:21:26;99917.09;;;6.28;57.66
7333;BME280;3707;43.618;25.342;2023-04-07T04:23:54;99978.50;;;6.72;57.71
7333;BME280;3707;43.618;25.342;2023-04-07T04:26:21;99991.53;;;6.77;57.50
7333;BME280;3707;43.618;25.342;2023-04-07T04:28:50;99994.22;;;6.81;57.34
7333;BME280;3707;43.618;25.342;2023-04-07T04:31:17;99921.81;;;6.41;57.51
7333;BME280;3707;43.618;25.342;2023-04-07T04:33:44;99977.78;;;6.78;57.41
7333;BME280;3707;43.618;25.342;2023-04-07T04:36:10;100002.34;;;6.95;57.24
7333;BME280;3707;43.618;25.342;2023-04-07T04:38:37;100005.22;;;7.06;57.17
7333;BME280;3707;43.618;25.342;2023-04-07T04:41:05;99980.28;;;7.05;56.48
7333;BME280;3707;43.618;25.342;2023-04-07T04:43:32;100008.03;;;7.13;56.80
7333;BME280;3707;43.618;25.342;2023-04-07T04:45:59;99991.31;;;6.99;56.75
7333;BME280;3707;43.618;25.342;2023-04-07T04:48:26;100015.28;;;7.28;56.67
7333;BME280;3707;43.618;25.342;2023-04-07T04:50:53;100017.69;;;7.22;56.62
7333;BME280;3707;43.618;25.342;2023-04-07T04:53:20;99998.25;;;7.02;56.90
7333;BME280;3707;43.618;25.342;2023-04-07T04:55:47;100022.03;;;7.23;56.73
7333;BME280;3707;43.618;25.342;2023-04-07T04:58:18;99984.81;;;7.13;56.80
7333;BME280;3707;43.618;25.342;2023-04-07T05:00:44;100025.59;;;7.59;56.68
7333;BME280;3707;43.618;25.342;2023-04-07T05:03:11;100018.19;;;7.73;55.28
7333;BME280;3707;43.618;25.342;2023-04-07T05:05:38;100029.34;;;8.06;54.10
7333;BME280;3707;43.618;25.342;2023-04-07T05:08:05;100041.28;;;8.01;54.13
7333;BME280;3707;43.618;25.342;2023-04-07T05:10:32;100042.31;;;8.43;53.65
7333;BME280;3707;43.618;25.342;2023-04-07T05:12:58;100023.16;;;8.74;52.55
7333;BME280;3707;43.618;25.342;2023-04-07T05:15:27;100003.25;;;8.69;53.05
7333;BME280;3707;43.618;25.342;2023-04-07T05:17:53;100050.16;;;8.87;52.33
7333;BME280;3707;43.618;25.342;2023-04-07T05:20:20;100058.16;;;8.59;53.42
7333;BME280;3707;43.618;25.342;2023-04-07T05:22:47;100058.56;;;8.38;54.47
7333;BME280;3707;43.618;25.342;2023-04-07T05:25:14;100067.59;;;8.22;55.09
7333;BME280;3707;43.618;25.342;2023-04-07T05:27:40;100049.78;;;7.97;55.76
7333;BME280;3707;43.618;25.342;2023-04-07T05:30:08;100072.56;;;8.13;55.82
7333;BME280;3707;43.618;25.342;2023-04-07T05:32:36;100068.59;;;7.93;56.04
7333;BME280;3707;43.618;25.342;2023-04-07T05:35:03;100075.78;;;7.72;56.86
7333;BME280;3707;43.618;25.342;2023-04-07T05:37:30;100074.16;;;7.74;56.98
7333;BME280;3707;43.618;25.342;2023-04-07T05:39:57;100081.47;;;7.91;59.49
7333;BME280;3707;43.618;25.342;2023-04-07T05:42:24;100077.28;;;7.64;57.58
7333;BME280;3707;43.618;25.342;2023-04-07T05:44:51;100078.69;;;7.84;57.89
7333;BME280;3707;43.618;25.342;2023-04-07T05:47:17;100065.56;;;8.09;78.35
7333;BME280;3707;43.618;25.342;2023-04-07T05:49:46;100085.56;;;8.16;59.52
7333;BME280;3707;43.618;25.342;2023-04-07T05:52:13;100085.16;;;8.01;59.31
7333;BME280;3707;43.618;25.342;2023-04-07T05:54:40;100078.91;;;7.93;59.29
7333;BME280;3707;43.618;25.342;2023-04-07T05:57:07;100078.91;;;7.93;60.26
7333;BME280;3707;43.618;25.342;2023-04-07T05:59:34;100085.00;;;7.95;60.74
7333;BME280;3707;43.618;25.342;2023-04-07T06:02:01;100085.50;;;8.15;65.43
7333;BME280;3707;43.618;25.342;2023-04-07T06:04:28;100086.75;;;8.29;66.84
7333;BME280;3707;43.618;25.342;2023-04-07T06:06:56;100088.25;;;8.57;86.13
7333;BME280;3707;43.618;25.342;2023-04-07T06:09:23;100093.84;;;8.37;71.19
7333;BME280;3707;43.618;25.342;2023-04-07T06:11:50;100069.91;;;8.44;74.78
7333;BME280;3707;43.618;25.342;2023-04-07T06:14:17;100099.16;;;8.43;68.49
7333;BME280;3707;43.618;25.342;2023-04-07T06:16:44;100070.31;;;8.27;67.35
7333;BME280;3707;43.618;25.342;2023-04-07T06:19:11;100086.91;;;8.36;73.52
7333;BME280;3707;43.618;25.342;2023-04-07T06:21:37;100095.56;;;8.37;68.53
7333;BME280;3707;43.618;25.342;2023-04-07T06:24:07;100103.00;;;8.26;66.50
7333;BME280;3707;43.618;25.342;2023-04-07T06:26:33;100104.75;;;8.27;66.05
7333;BME280;3707;43.618;25.342;2023-04-07T06:29:00;100108.16;;;8.59;74.28
7333;BME280;3707;43.618;25.342;2023-04-07T06:31:27;100103.16;;;8.67;67.73
7333;BME280;3707;43.618;25.342;2023-04-07T06:33:54;100103.06;;;9.03;75.05
7333;BME280;3707;43.618;25.342;2023-04-07T06:36:21;100109.56;;;8.84;67.40
7333;BME280;3707;43.618;25.342;2023-04-07T06:38:48;100120.16;;;8.94;67.54
7333;BME280;3707;43.618;25.342;2023-04-07T06:41:16;100116.94;;;9.06;66.37
7333;BME280;3707;43.618;25.342;2023-04-07T06:43:43;100107.53;;;8.71;66.43
7333;BME280;3707;43.618;25.342;2023-04-07T06:46:10;100121.63;;;8.83;65.97
7333;BME280;3707;43.618;25.342;2023-04-07T06:48:37;100120.34;;;9.04;67.01
7333;BME280;3707;43.618;25.342;2023-04-07T06:51:04;100115.94;;;9.00;64.52
7333;BME280;3707;43.618;25.342;2023-04-07T06:53:30;100125.78;;;9.16;66.47
7333;BME280;3707;43.618;25.342;2023-04-07T06:56:04;100117.38;;;8.87;64.72
7333;BME280;3707;43.618;25.342;2023-04-07T06:58:33;100125.78;;;8.77;65.09
7333;BME280;3707;43.618;25.342;2023-04-07T07:01:00;100103.00;;;8.61;65.13
7333;BME280;3707;43.618;25.342;2023-04-07T07:03:27;100129.69;;;8.97;65.64
7333;BME280;3707;43.618;25.342;2023-04-07T07:05:53;100128.78;;;8.96;65.49
7333;BME280;3707;43.618;25.342;2023-04-07T07:08:21;100134.09;;;9.03;64.77
7333;BME280;3707;43.618;25.342;2023-04-07T07:10:48;100135.13;;;9.09;63.32
7333;BME280;3707;43.618;25.342;2023-04-07T07:13:15;100135.19;;;9.12;62.59
7333;BME280;3707;43.618;25.342;2023-04-07T07:15:43;100140.31;;;9.53;68.44
7333;BME280;3707;43.618;25.342;2023-04-07T07:18:10;100145.13;;;9.78;63.85
7333;BME280;3707;43.618;25.342;2023-04-07T07:20:37;100127.53;;;9.59;60.78
7333;BME280;3707;43.618;25.342;2023-04-07T07:23:04;100146.53;;;9.61;62.10
7333;BME280;3707;43.618;25.342;2023-04-07T07:25:31;100140.63;;;9.66;60.88
7333;BME280;3707;43.618;25.342;2023-04-07T07:27:57;100158.66;;;9.62;60.26
7333;BME280;3707;43.618;25.342;2023-04-07T07:30:24;100133.59;;;9.59;60.18
7333;BME280;3707;43.618;25.342;2023-04-07T07:32:53;100089.59;;;9.59;61.16
7333;BME280;3707;43.618;25.342;2023-04-07T07:35:21;100100.94;;;9.67;59.96
7333;BME280;3707;43.618;25.342;2023-04-07T07:37:49;100156.41;;;10.23;59.18
7333;BME280;3707;43.618;25.342;2023-04-07T07:40:16;100147.59;;;10.15;58.26
7333;BME280;3707;43.618;25.342;2023-04-07T07:42:44;100146.81;;;10.19;61.72
7333;BME280;3707;43.618;25.342;2023-04-07T07:45:11;100166.69;;;10.20;59.88
7333;BME280;3707;43.618;25.342;2023-04-07T07:47:39;100141.88;;;9.86;58.49
7333;BME280;3707;43.618;25.342;2023-04-07T07:50:07;100178.47;;;10.06;57.89
7333;BME280;3707;43.618;25.342;2023-04-07T07:52:34;100168.94;;;10.04;57.76
7333;BME280;3707;43.618;25.342;2023-04-07T07:55:01;100149.97;;;10.05;58.50
7333;BME280;3707;43.618;25.342;2023-04-07T07:57:28;100169.47;;;9.84;58.62
7333;BME280;3707;43.618;25.342;2023-04-07T07:59:56;100176.09;;;10.15;58.77
7333;BME280;3707;43.618;25.342;2023-04-07T08:02:23;100173.19;;;10.00;58.10
7333;BME280;3707;43.618;25.342;2023-04-07T08:04:54;100150.47;;;9.84;58.55
7333;BME280;3707;43.618;25.342;2023-04-07T08:07:23;100166.50;;;10.11;58.04
7333;BME280;3707;43.618;25.342;2023-04-07T08:09:49;100167.72;;;9.85;58.44
7333;BME280;3707;43.618;25.342;2023-04-07T08:12:16;100172.50;;;10.10;58.12
7333;BME280;3707;43.618;25.342;2023-04-07T08:14:43;100149.59;;;10.31;58.06
7333;BME280;3707;43.618;25.342;2023-04-07T08:17:10;100153.91;;;10.29;57.84
7333;BME280;3707;43.618;25.342;2023-04-07T08:19:37;100150.94;;;10.11;57.68
7333;BME280;3707;43.618;25.342;2023-04-07T08:22:04;100167.84;;;10.36;58.09
7333;BME280;3707;43.618;25.342;2023-04-07T08:24:32;100160.16;;;10.40;57.04
7333;BME280;3707;43.618;25.342;2023-04-07T08:26:59;100167.22;;;10.51;57.98
7333;BME280;3707;43.618;25.342;2023-04-07T08:29:26;100163.22;;;10.69;57.25
7333;BME280;3707;43.618;25.342;2023-04-07T08:31:53;100170.31;;;10.82;56.69
7333;BME280;3707;43.618;25.342;2023-04-07T08:34:20;100160.31;;;10.51;56.27
7333;BME280;3707;43.618;25.342;2023-04-07T08:36:48;100172.38;;;10.49;57.22
7333;BME280;3707;43.618;25.342;2023-04-07T08:39:15;100168.16;;;11.11;54.59
7333;BME280;3707;43.618;25.342;2023-04-07T08:41:43;100158.13;;;11.38;53.90
7333;BME280;3707;43.618;25.342;2023-04-07T08:44:12;100164.00;;;11.24;53.06
7333;BME280;3707;43.618;25.342;2023-04-07T08:46:40;100144.00;;;11.15;53.07
7333;BME280;3707;43.618;25.342;2023-04-07T08:49:09;100164.69;;;11.09;53.25
7333;BME280;3707;43.618;25.342;2023-04-07T08:51:43;100158.88;;;11.28;52.99
7333;BME280;3707;43.618;25.342;2023-04-07T08:54:12;100157.84;;;11.16;52.46
7333;BME280;3707;43.618;25.342;2023-04-07T08:56:40;100149.13;;;11.09;51.98
7333;BME280;3707;43.618;25.342;2023-04-07T08:59:10;100180.28;;;11.12;51.88
7333;BME280;3707;43.618;25.342;2023-04-07T09:01:38;100183.53;;;10.99;52.62
7333;BME280;3707;43.618;25.342;2023-04-07T09:04:06;100177.44;;;10.94;53.43
7333;BME280;3707;43.618;25.342;2023-04-07T09:06:33;100175.47;;;10.79;54.25
7333;BME280;3707;43.618;25.342;2023-04-07T09:09:00;100188.91;;;11.11;53.59
7333;BME280;3707;43.618;25.342;2023-04-07T09:11:28;100195.16;;;11.25;52.92
7333;BME280;3707;43.618;25.342;2023-04-07T09:13:55;100148.84;;;10.91;51.77
7333;BME280;3707;43.618;25.342;2023-04-07T09:16:27;100179.84;;;10.85;53.75
7333;BME280;3707;43.618;25.342;2023-04-07T09:18:54;100187.16;;;10.56;53.48
7333;BME280;3707;43.618;25.342;2023-04-07T09:21:21;100174.94;;;11.03;53.33
7333;BME280;3707;43.618;25.342;2023-04-07T09:23:48;100172.75;;;11.30;52.76
7333;BME280;3707;43.618;25.342;2023-04-07T09:26:20;100184.69;;;11.18;52.31
7333;BME280;3707;43.618;25.342;2023-04-07T09:28:49;100174.81;;;11.56;51.96
7333;BME280;3707;43.618;25.342;2023-04-07T09:31:16;100100.66;;;11.08;50.91
7333;BME280;3707;43.618;25.342;2023-04-07T09:33:45;100174.59;;;12.10;50.39
7333;BME280;3707;43.618;25.342;2023-04-07T09:36:12;100156.97;;;11.80;51.23
7333;BME280;3707;43.618;25.342;2023-04-07T09:38:40;100170.38;;;12.19;50.64
7333;BME280;3707;43.618;25.342;2023-04-07T09:41:08;100174.97;;;12.48;50.18
7333;BME280;3707;43.618;25.342;2023-04-07T09:43:36;100180.31;;;12.66;49.10
7333;BME280;3707;43.618;25.342;2023-04-07T09:46:12;100177.63;;;12.55;49.91
7333;BME280;3707;43.618;25.342;2023-04-07T09:51:10;100175.19;;;12.73;49.17
7333;BME280;3707;43.618;25.342;2023-04-07T09:53:42;100185.72;;;12.90;49.22
7333;BME280;3707;43.618;25.342;2023-04-07T09:56:09;100181.97;;;12.55;48.05
7333;BME280;3707;43.618;25.342;2023-04-07T09:58:37;100197.75;;;12.79;49.38
7333;BME280;3707;43.618;25.342;2023-04-07T10:01:06;100180.31;;;12.66;48.45
7333;BME280;3707;43.618;25.342;2023-04-07T10:03:33;100164.38;;;12.28;49.08
7333;BME280;3707;43.618;25.342;2023-04-07T10:06:00;100176.63;;;12.39;49.60
7333;BME280;3707;43.618;25.342;2023-04-07T10:08:31;100172.00;;;13.14;50.06
7333;BME280;3707;43.618;25.342;2023-04-07T10:10:58;100171.25;;;13.33;48.90
7333;BME280;3707;43.618;25.342;2023-04-07T10:13:28;100183.09;;;12.91;48.53
7333;BME280;3707;43.618;25.342;2023-04-07T10:15:55;100188.22;;;12.81;48.01
7333;BME280;3707;43.618;25.342;2023-04-07T10:18:22;100185.81;;;13.07;47.00
7333;BME280;3707;43.618;25.342;2023-04-07T10:20:52;100181.44;;;13.01;46.11
7333;BME280;3707;43.618;25.342;2023-04-07T10:23:21;100187.31;;;12.70;46.45
7333;BME280;3707;43.618;25.342;2023-04-07T10:25:53;100173.75;;;13.13;46.52
7333;BME280;3707;43.618;25.342;2023-04-07T10:28:24;100172.94;;;13.25;46.19
7333;BME280;3707;43.618;25.342;2023-04-07T10:30:52;100185.63;;;12.76;47.55
7333;BME280;3707;43.618;25.342;2023-04-07T10:33:43;100181.03;;;12.47;47.87
7333;BME280;3707;43.618;25.342;2023-04-07T10:36:10;100182.25;;;12.96;48.37
7333;BME280;3707;43.618;25.342;2023-04-07T10:38:37;100189.13;;;12.84;47.88
7333;BME280;3707;43.618;25.342;2023-04-07T10:41:35;100180.75;;;13.22;47.75
7333;BME280;3707;43.618;25.342;2023-04-07T10:44:02;100172.69;;;12.91;48.34
7333;BME280;3707;43.618;25.342;2023-04-07T10:47:03;100191.94;;;13.10;47.48
7333;BME280;3707;43.618;25.342;2023-04-07T10:49:31;100173.84;;;13.28;47.26
7333;BME280;3707;43.618;25.342;2023-04-07T10:52:23;100192.88;;;13.18;49.45
7333;BME280;3707;43.618;25.342;2023-04-07T10:58:16;100154.59;;;13.08;49.71
7333;BME280;3707;43.618;25.342;2023-04-07T11:04:02;100187.88;;;13.55;49.18
7333;BME280;3707;43.618;25.342;2023-04-07T11:06:30;100196.31;;;13.14;50.59
7333;BME280;3707;43.618;25.342;2023-04-07T11:08:57;100123.09;;;12.66;49.48
7333;BME280;3707;43.618;25.342;2023-04-07T11:11:40;100180.84;;;13.41;49.58
7333;BME280;3707;43.618;25.342;2023-04-07T11:14:08;100200.91;;;13.55;49.70
7333;BME280;3707;43.618;25.342;2023-04-07T11:16:37;100198.34;;;13.62;49.30
7333;BME280;3707;43.618;25.342;2023-04-07T11:19:04;100199.88;;;13.31;48.34
7333;BME280;3707;43.618;25.342;2023-04-07T11:21:31;100199.13;;;13.51;47.38
7333;BME280;3707;43.618;25.342;2023-04-07T11:23:58;100208.03;;;13.98;47.01
7333;BME280;3707;43.618;25.342;2023-04-07T11:26:25;100226.31;;;14.16;46.15
7333;BME280;3707;43.618;25.342;2023-04-07T11:28:54;100211.53;;;14.05;46.62
7333;BME280;3707;43.618;25.342;2023-04-07T11:31:23;100206.22;;;13.82;47.43
7333;BME280;3707;43.618;25.342;2023-04-07T11:33:52;100219.22;;;13.76;45.83
7333;BME280;3707;43.618;25.342;2023-04-07T11:36:26;100209.59;;;13.55;46.71
7333;BME280;3707;43.618;25.342;2023-04-07T11:38:54;100205.94;;;13.23;46.65
7333;BME280;3707;43.618;25.342;2023-04-07T11:41:22;100196.41;;;13.29;46.14
7333;BME280;3707;43.618;25.342;2023-04-07T11:44:02;100212.13;;;13.45;48.11
7333;BME280;3707;43.618;25.342;2023-04-07T11:46:31;100215.63;;;13.48;47.77
7333;BME280;3707;43.618;25.342;2023-04-07T11:49:08;100218.13;;;13.33;48.79
7333;BME280;3707;43.618;25.342;2023-04-07T11:51:35;100203.97;;;12.96;49.42
7333;BME280;3707;43.618;25.342;2023-04-07T11:54:02;100216.81;;;12.78;50.46
7333;BME280;3707;43.618;25.342;2023-04-07T11:56:28;100203.59;;;12.52;50.64
7333;BME280;3707;43.618;25.342;2023-04-07T11:58:55;100229.47;;;12.37;50.79
7333;BME280;3707;43.618;25.342;2023-04-07T12:01:39;100225.53;;;12.80;49.84
7333;BME280;3707;43.618;25.342;2023-04-07T12:04:11;100223.00;;;12.89;50.00
7333;BME280;3707;43.618;25.342;2023-04-07T12:06:38;100207.59;;;13.13;50.31
7333;BME280;3707;43.618;25.342;2023-04-07T12:09:07;100221.38;;;13.06;50.72
7333;BME280;3707;43.618;25.342;2023-04-07T12:11:35;100225.94;;;13.33;50.06
7333;BME280;3707;43.618;25.342;2023-04-07T12:14:03;100226.69;;;13.17;50.35
7333;BME280;3707;43.618;25.342;2023-04-07T12:16:31;100230.94;;;13.07;50.39
7333;BME280;3707;43.618;25.342;2023-04-07T12:18:59;100237.69;;;12.82;49.13
7333;BME280;3707;43.618;25.342;2023-04-07T12:21:26;100222.66;;;12.50;49.68
7333;BME280;3707;43.618;25.342;2023-04-07T12:23:53;100220.69;;;12.27;49.29
7333;BME280;3707;43.618;25.342;2023-04-07T12:26:20;100244.28;;;12.46;49.42
7333;BME280;3707;43.618;25.342;2023-04-07T12:28:47;100230.50;;;12.54;51.40
7333;BME280;3707;43.618;25.342;2023-04-07T12:31:14;100246.09;;;12.54;50.45
7333;BME280;3707;43.618;25.342;2023-04-07T12:33:41;100246.00;;;12.43;49.56
7333;BME280;3707;43.618;25.342;2023-04-07T12:36:09;100239.09;;;12.49;50.18
7333;BME280;3707;43.618;25.342;2023-04-07T12:38:36;100241.56;;;12.35;50.77
7333;BME280;3707;43.618;25.342;2023-04-07T12:41:03;100252.06;;;12.41;50.63
7333;BME280;3707;43.618;25.342;2023-04-07T12:43:30;100247.81;;;12.51;50.94
7333;BME280;3707;43.618;25.342;2023-04-07T12:45:57;100254.97;;;12.73;50.90
7333;BME280;3707;43.618;25.342;2023-04-07T12:48:23;100232.22;;;12.54;51.55
7333;BME280;3707;43.618;25.342;2023-04-07T12:50:51;100251.41;;;11.86;53.23
7333;BME280;3707;43.618;25.342;2023-04-07T12:53:20;100245.56;;;12.04;53.54
7333;BME280;3707;43.618;25.342;2023-04-07T12:55:47;100259.66;;;12.24;53.17
7333;BME280;3707;43.618;25.342;2023-04-07T12:58:13;100251.22;;;12.47;54.35
7333;BME280;3707;43.618;25.342;2023-04-07T13:00:41;100261.91;;;11.96;52.83
7333;BME280;3707;43.618;25.342;2023-04-07T13:03:08;100247.41;;;12.14;53.97
7333;BME280;3707;43.618;25.342;2023-04-07T13:05:35;100269.09;;;12.15;54.18
7333;BME280;3707;43.618;25.342;2023-04-07T13:08:02;100268.63;;;12.51;52.78
7333;BME280;3707;43.618;25.342;2023-04-07T13:10:31;100270.38;;;12.52;52.61
7333;BME280;3707;43.618;25.342;2023-04-07T13:12:57;100277.00;;;12.25;52.76
7333;BME280;3707;43.618;25.342;2023-04-07T13:15:25;100273.69;;;12.41;54.94
7333;BME280;3707;43.618;25.342;2023-04-07T13:17:52;100279.19;;;11.90;56.43
7333;BME280;3707;43.618;25.342;2023-04-07T13:20:19;100200.34;;;11.87;56.02
7333;BME280;3707;43.618;25.342;2023-04-07T13:22:46;100272.97;;;12.52;55.23
7333;BME280;3707;43.618;25.342;2023-04-07T13:25:13;100271.75;;;12.21;56.08
7333;BME280;3707;43.618;25.342;2023-04-07T13:27:41;100284.75;;;12.19;55.22